Muscat, Oman
Current Conditions -  °F | °C
As of 11:50 AM on Friday 21 Nov 2014 (Local Time) from OOMS Reporting Station
Scattered Clouds Scattered Clouds  
Wind Chill: 82°   Ceiling: Unl
Heat Index: 87°   Visibility: 5mi
Dew Point: 72°   Wind: 9mph
Humidity: 70%   Direction: 340°NNW
Pressure: 30.03"   Gusts: NA
Location:  23.61°N, 58.54°E
Report Text: OOMS 210750Z 34008KT 300V020 8000 SCT025 28/22 Q1017 NOSIG
Loading
Personal Weather Stations






























Interactive Weather Map New forecast layout! Learn more

10-Day Weather Forecast

Advertisements
Track Severe Weather on mobile